sensor_id;sensor_type;location;lat;lon;timestamp;pressure;altitude;pressure_sealevel;temperature;humidity
82160;BME280;71734;50.876;7.372;2023-12-20T00:01:57;98946.13;;;5.53;100.00
82160;BME280;71734;50.876;7.372;2023-12-20T00:04:23;98942.63;;;5.52;100.00
82160;BME280;71734;50.876;7.372;2023-12-20T00:06:50;98933.00;;;5.53;100.00
82160;BME280;71734;50.876;7.372;2023-12-20T00:09:17;98932.13;;;5.52;100.00
82160;BME280;71734;50.876;7.372;2023-12-20T00:11:45;98937.25;;;5.58;100.00
82160;BME280;71734;50.876;7.372;2023-12-20T00:14:11;98940.84;;;5.54;100.00
82160;BME280;71734;50.876;7.372;2023-12-20T00:16:38;98934.69;;;5.55;100.00
82160;BME280;71734;50.876;7.372;2023-12-20T00:19:04;98934.53;;;5.63;100.00
82160;BME280;71734;50.876;7.372;2023-12-20T00:21:31;98946.06;;;5.57;100.00
82160;BME280;71734;50.876;7.372;2023-12-20T00:23:57;98946.06;;;5.57;100.00
82160;BME280;71734;50.876;7.372;2023-12-20T00:26:24;98940.00;;;5.52;100.00
82160;BME280;71734;50.876;7.372;2023-12-20T00:28:51;98933.97;;;5.47;100.00
82160;BME280;71734;50.876;7.372;2023-12-20T00:31:18;98919.72;;;5.59;100.00
82160;BME280;71734;50.876;7.372;2023-12-20T00:33:45;98925.06;;;5.54;100.00
82160;BME280;71734;50.876;7.372;2023-12-20T00:36:12;98938.94;;;5.62;100.00
82160;BME280;71734;50.876;7.372;2023-12-20T00:38:39;98938.19;;;5.56;100.00
82160;BME280;71734;50.876;7.372;2023-12-20T00:41:05;98934.59;;;5.61;100.00
82160;BME280;71734;50.876;7.372;2023-12-20T00:43:32;98926.84;;;5.54;100.00
82160;BME280;71734;50.876;7.372;2023-12-20T00:45:59;98933.72;;;5.61;100.00
82160;BME280;71734;50.876;7.372;2023-12-20T00:48:26;98937.25;;;5.58;100.00
82160;BME280;71734;50.876;7.372;2023-12-20T00:50:53;98925.84;;;5.59;100.00
82160;BME280;71734;50.876;7.372;2023-12-20T00:53:20;98933.78;;;5.58;100.00
82160;BME280;71734;50.876;7.372;2023-12-20T00:55:46;98937.22;;;5.61;100.00
82160;BME280;71734;50.876;7.372;2023-12-20T00:58:13;98933.63;;;5.66;100.00
82160;BME280;71734;50.876;7.372;2023-12-20T01:00:40;98929.28;;;5.63;100.00
82160;BME280;71734;50.876;7.372;2023-12-20T01:03:08;98927.50;;;5.65;100.00
82160;BME280;71734;50.876;7.372;2023-12-20T01:05:34;98918.63;;;5.71;100.00
82160;BME280;71734;50.876;7.372;2023-12-20T01:08:00;98931.84;;;5.68;100.00
82160;BME280;71734;50.876;7.372;2023-12-20T01:10:28;98937.81;;;5.76;100.00
82160;BME280;71734;50.876;7.372;2023-12-20T01:12:54;98937.13;;;5.66;100.00
82160;BME280;71734;50.876;7.372;2023-12-20T01:15:21;98951.09;;;5.68;100.00
82160;BME280;71734;50.876;7.372;2023-12-20T01:17:48;98958.06;;;5.71;100.00
82160;BME280;71734;50.876;7.372;2023-12-20T01:20:16;98956.44;;;5.63;100.00
82160;BME280;71734;50.876;7.372;2023-12-20T01:22:45;98962.56;;;5.64;100.00
82160;BME280;71734;50.876;7.372;2023-12-20T01:25:12;98952.94;;;5.63;100.00
82160;BME280;71734;50.876;7.372;2023-12-20T01:27:38;98952.13;;;5.61;100.00
82160;BME280;71734;50.876;7.372;2023-12-20T01:30:06;98972.22;;;5.63;100.00
82160;BME280;71734;50.876;7.372;2023-12-20T01:32:32;98964.47;;;5.56;100.00
82160;BME280;71734;50.876;7.372;2023-12-20T01:34:59;98957.53;;;5.53;100.00
82160;BME280;71734;50.876;7.372;2023-12-20T01:37:27;98964.41;;;5.59;100.00
82160;BME280;71734;50.876;7.372;2023-12-20T01:39:54;98966.38;;;5.48;100.00
82160;BME280;71734;50.876;7.372;2023-12-20T01:42:21;98968.84;;;5.55;100.00
82160;BME280;71734;50.876;7.372;2023-12-20T01:44:47;98970.75;;;5.47;100.00
82160;BME280;71734;50.876;7.372;2023-12-20T01:47:14;98972.38;;;5.54;100.00
82160;BME280;71734;50.876;7.372;2023-12-20T01:49:41;98977.91;;;5.39;100.00
82160;BME280;71734;50.876;7.372;2023-12-20T01:52:07;98990.22;;;5.37;100.00
82160;BME280;71734;50.876;7.372;2023-12-20T01:54:37;98984.97;;;5.37;100.00
82160;BME280;71734;50.876;7.372;2023-12-20T01:57:05;98986.78;;;5.32;100.00
82160;BME280;71734;50.876;7.372;2023-12-20T01:59:32;98992.94;;;5.31;100.00
82160;BME280;71734;50.876;7.372;2023-12-20T02:01:59;98984.97;;;5.37;100.00
82160;BME280;71734;50.876;7.372;2023-12-20T02:04:26;98986.72;;;5.35;100.00
82160;BME280;71734;50.876;7.372;2023-12-20T02:06:53;98992.03;;;5.32;100.00
82160;BME280;71734;50.876;7.372;2023-12-20T02:09:22;98997.19;;;5.38;100.00
82160;BME280;71734;50.876;7.372;2023-12-20T02:11:50;98996.22;;;5.42;100.00
82160;BME280;71734;50.876;7.372;2023-12-20T02:14:16;98993.59;;;5.45;100.00
82160;BME280;71734;50.876;7.372;2023-12-20T02:16:43;98986.66;;;5.38;100.00
82160;BME280;71734;50.876;7.372;2023-12-20T02:19:13;98988.34;;;5.42;100.00
82160;BME280;71734;50.876;7.372;2023-12-20T02:21:41;98998.94;;;5.39;100.00
82160;BME280;71734;50.876;7.372;2023-12-20T02:24:08;98989.34;;;5.35;100.00
82160;BME280;71734;50.876;7.372;2023-12-20T02:26:34;98993.78;;;5.33;100.00
82160;BME280;71734;50.876;7.372;2023-12-20T02:29:01;99009.50;;;5.36;100.00
82160;BME280;71734;50.876;7.372;2023-12-20T02:31:28;98992.88;;;5.34;100.00
82160;BME280;71734;50.876;7.372;2023-12-20T02:33:55;98993.72;;;5.36;100.00
82160;BME280;71734;50.876;7.372;2023-12-20T02:36:21;98995.53;;;5.33;100.00
82160;BME280;71734;50.876;7.372;2023-12-20T02:38:49;98996.28;;;5.41;100.00
82160;BME280;71734;50.876;7.372;2023-12-20T02:41:16;98998.97;;;5.36;100.00
82160;BME280;71734;50.876;7.372;2023-12-20T02:43:43;99010.41;;;5.34;100.00
82160;BME280;71734;50.876;7.372;2023-12-20T02:46:09;99008.75;;;5.28;100.00
82160;BME280;71734;50.876;7.372;2023-12-20T02:48:36;99001.88;;;5.20;100.00
82160;BME280;71734;50.876;7.372;2023-12-20T02:51:03;99005.38;;;5.19;100.00
82160;BME280;71734;50.876;7.372;2023-12-20T02:53:31;99008.13;;;5.11;100.00
82160;BME280;71734;50.876;7.372;2023-12-20T02:56:02;99011.69;;;5.07;100.00
82160;BME280;71734;50.876;7.372;2023-12-20T02:58:28;99027.56;;;5.01;100.00
82160;BME280;71734;50.876;7.372;2023-12-20T03:00:56;99030.97;;;5.06;100.00
82160;BME280;71734;50.876;7.372;2023-12-20T03:03:22;99041.53;;;5.03;100.00
82160;BME280;71734;50.876;7.372;2023-12-20T03:05:49;99032.84;;;4.98;100.00
82160;BME280;71734;50.876;7.372;2023-12-20T03:08:15;99039.97;;;4.90;100.00
82160;BME280;71734;50.876;7.372;2023-12-20T03:10:51;99036.44;;;4.91;100.00
82160;BME280;71734;50.876;7.372;2023-12-20T03:13:18;99029.50;;;4.87;100.00
82160;BME280;71734;50.876;7.372;2023-12-20T03:15:44;99035.69;;;4.83;100.00
82160;BME280;71734;50.876;7.372;2023-12-20T03:18:11;99033.13;;;4.80;100.00
82160;BME280;71734;50.876;7.372;2023-12-20T03:20:37;99036.69;;;4.76;100.00
82160;BME280;71734;50.876;7.372;2023-12-20T03:23:06;99041.03;;;4.77;100.00
82160;BME280;71734;50.876;7.372;2023-12-20T03:25:32;99045.25;;;4.87;100.00
82160;BME280;71734;50.876;7.372;2023-12-20T03:27:59;99049.69;;;4.82;100.00
82160;BME280;71734;50.876;7.372;2023-12-20T03:30:27;99049.75;;;4.80;100.00
82160;BME280;71734;50.876;7.372;2023-12-20T03:32:54;99041.88;;;4.79;100.00
82160;BME280;71734;50.876;7.372;2023-12-20T03:35:20;99038.41;;;4.77;100.00
82160;BME280;71734;50.876;7.372;2023-12-20T03:37:46;99033.06;;;4.83;100.00
82160;BME280;71734;50.876;7.372;2023-12-20T03:40:13;99027.81;;;4.83;100.00
82160;BME280;71734;50.876;7.372;2023-12-20T03:42:40;99034.88;;;4.81;100.00
82160;BME280;71734;50.876;7.372;2023-12-20T03:45:07;99029.63;;;4.81;100.00
82160;BME280;71734;50.876;7.372;2023-12-20T03:47:35;99030.56;;;4.75;100.00
82160;BME280;71734;50.876;7.372;2023-12-20T03:50:02;99026.25;;;4.69;100.00
82160;BME280;71734;50.876;7.372;2023-12-20T03:52:29;99027.91;;;4.77;100.00
82160;BME280;71734;50.876;7.372;2023-12-20T03:54:56;99030.53;;;4.77;100.00
82160;BME280;71734;50.876;7.372;2023-12-20T03:57:23;99031.38;;;4.80;100.00
82160;BME280;71734;50.876;7.372;2023-12-20T03:59:50;99038.41;;;4.77;100.00
82160;BME280;71734;50.876;7.372;2023-12-20T04:02:16;99037.63;;;4.70;100.00
82160;BME280;71734;50.876;7.372;2023-12-20T04:04:45;99033.16;;;4.77;100.00
82160;BME280;71734;50.876;7.372;2023-12-20T04:07:12;99031.47;;;4.73;100.00
82160;BME280;71734;50.876;7.372;2023-12-20T04:09:40;99033.06;;;4.83;100.00
82160;BME280;71734;50.876;7.372;2023-12-20T04:12:07;99047.06;;;4.82;100.00
82160;BME280;71734;50.876;7.372;2023-12-20T04:14:33;99050.72;;;4.72;100.00
82160;BME280;71734;50.876;7.372;2023-12-20T04:17:00;99047.28;;;4.65;100.00
82160;BME280;71734;50.876;7.372;2023-12-20T04:19:27;99052.59;;;4.63;100.00
82160;BME280;71734;50.876;7.372;2023-12-20T04:21:55;99054.28;;;4.67;100.00
82160;BME280;71734;50.876;7.372;2023-12-20T04:24:22;99046.41;;;4.67;100.00
82160;BME280;71734;50.876;7.372;2023-12-20T04:26:48;99041.13;;;4.69;100.00
82160;BME280;71734;50.876;7.372;2023-12-20T04:29:15;99056.03;;;4.68;100.00
82160;BME280;71734;50.876;7.372;2023-12-20T04:31:42;99039.31;;;4.74;100.00
82160;BME280;71734;50.876;7.372;2023-12-20T04:34:08;99043.69;;;4.74;100.00
82160;BME280;71734;50.876;7.372;2023-12-20T04:36:35;99034.97;;;4.72;100.00
82160;BME280;71734;50.876;7.372;2023-12-20T04:39:04;99040.19;;;4.75;100.00
82160;BME280;71734;50.876;7.372;2023-12-20T04:41:31;99036.75;;;4.69;100.00
82160;BME280;71734;50.876;7.372;2023-12-20T04:43:58;99038.50;;;4.71;100.00
82160;BME280;71734;50.876;7.372;2023-12-20T04:46:25;99029.78;;;4.68;100.00
82160;BME280;71734;50.876;7.372;2023-12-20T04:48:52;99029.78;;;4.68;100.00
82160;BME280;71734;50.876;7.372;2023-12-20T04:51:19;99031.44;;;4.76;100.00
82160;BME280;71734;50.876;7.372;2023-12-20T04:53:46;99034.06;;;4.74;100.00
82160;BME280;71734;50.876;7.372;2023-12-20T04:56:14;99031.47;;;4.73;100.00
82160;BME280;71734;50.876;7.372;2023-12-20T04:58:40;99033.16;;;4.77;100.00
82160;BME280;71734;50.876;7.372;2023-12-20T05:01:08;99041.88;;;4.79;100.00
82160;BME280;71734;50.876;7.372;2023-12-20T05:03:35;99044.50;;;4.80;100.00
82160;BME280;71734;50.876;7.372;2023-12-20T05:06:02;99031.44;;;4.76;100.00
82160;BME280;71734;50.876;7.372;2023-12-20T05:08:30;99027.16;;;4.68;100.00
82160;BME280;71734;50.876;7.372;2023-12-20T05:10:57;99040.13;;;4.78;100.00
82160;BME280;71734;50.876;7.372;2023-12-20T05:13:25;99029.69;;;4.75;100.00
82160;BME280;71734;50.876;7.372;2023-12-20T05:15:53;99039.25;;;4.79;100.00
82160;BME280;71734;50.876;7.372;2023-12-20T05:18:20;99037.63;;;4.70;100.00
82160;BME280;71734;50.876;7.372;2023-12-20T05:20:46;99040.28;;;4.68;100.00
82160;BME280;71734;50.876;7.372;2023-12-20T05:23:13;99036.72;;;4.73;100.00
82160;BME280;71734;50.876;7.372;2023-12-20T05:25:39;99040.94;;;4.81;100.00
82160;BME280;71734;50.876;7.372;2023-12-20T05:28:06;99036.69;;;4.76;100.00
82160;BME280;71734;50.876;7.372;2023-12-20T05:30:39;99038.53;;;4.67;100.00
82160;BME280;71734;50.876;7.372;2023-12-20T05:33:06;99040.28;;;4.68;100.00
82160;BME280;71734;50.876;7.372;2023-12-20T05:35:32;99035.00;;;4.70;100.00
82160;BME280;71734;50.876;7.372;2023-12-20T05:37:59;99030.63;;;4.69;100.00
82160;BME280;71734;50.876;7.372;2023-12-20T05:40:25;99032.31;;;4.73;100.00
82160;BME280;71734;50.876;7.372;2023-12-20T05:42:52;99042.91;;;4.67;100.00
82160;BME280;71734;50.876;7.372;2023-12-20T05:45:19;99029.78;;;4.65;100.00
82160;BME280;71734;50.876;7.372;2023-12-20T05:47:48;99045.59;;;4.62;100.00
82160;BME280;71734;50.876;7.372;2023-12-20T05:50:14;99043.94;;;4.55;100.00
82160;BME280;71734;50.876;7.372;2023-12-20T05:52:41;99048.94;;;4.74;100.00
82160;BME280;71734;50.876;7.372;2023-12-20T05:55:10;99044.50;;;4.80;100.00
82160;BME280;71734;50.876;7.372;2023-12-20T05:57:37;99054.94;;;4.83;100.00
82160;BME280;71734;50.876;7.372;2023-12-20T06:00:04;99045.53;;;4.65;100.00
82160;BME280;71734;50.876;7.372;2023-12-20T06:02:31;99049.91;;;4.66;100.00
82160;BME280;71734;50.876;7.372;2023-12-20T06:05:01;99055.16;;;4.68;100.00
82160;BME280;71734;50.876;7.372;2023-12-20T06:07:28;99057.88;;;4.60;100.00
82160;BME280;71734;50.876;7.372;2023-12-20T06:10:01;99057.91;;;4.57;100.00
82160;BME280;71734;50.876;7.372;2023-12-20T06:12:28;99072.81;;;4.55;100.00
82160;BME280;71734;50.876;7.372;2023-12-20T06:14:57;99055.31;;;4.53;100.00
82160;BME280;71734;50.876;7.372;2023-12-20T06:17:23;99058.81;;;4.56;100.00
82160;BME280;71734;50.876;7.372;2023-12-20T06:19:50;99053.56;;;4.55;100.00
82160;BME280;71734;50.876;7.372;2023-12-20T06:22:18;99051.72;;;4.61;100.00
82160;BME280;71734;50.876;7.372;2023-12-20T06:24:44;99047.44;;;4.56;100.00
82160;BME280;71734;50.876;7.372;2023-12-20T06:27:11;99059.69;;;4.55;100.00
82160;BME280;71734;50.876;7.372;2023-12-20T06:29:37;99051.81;;;4.55;100.00
82160;BME280;71734;50.876;7.372;2023-12-20T06:32:06;99063.03;;;4.65;100.00
82160;BME280;71734;50.876;7.372;2023-12-20T06:34:33;99059.47;;;4.71;100.00
82160;BME280;71734;50.876;7.372;2023-12-20T06:36:59;99064.81;;;4.64;100.00
82160;BME280;71734;50.876;7.372;2023-12-20T06:39:27;99064.81;;;4.64;100.00
82160;BME280;71734;50.876;7.372;2023-12-20T06:41:56;99063.91;;;4.65;100.00
82160;BME280;71734;50.876;7.372;2023-12-20T06:44:22;99051.72;;;4.64;100.00
82160;BME280;71734;50.876;7.372;2023-12-20T06:46:49;99063.03;;;4.66;100.00
82160;BME280;71734;50.876;7.372;2023-12-20T06:49:15;99062.25;;;4.58;100.00
82160;BME280;71734;50.876;7.372;2023-12-20T06:51:42;99060.50;;;4.60;100.00
82160;BME280;71734;50.876;7.372;2023-12-20T06:54:11;99057.78;;;4.68;100.00
82160;BME280;71734;50.876;7.372;2023-12-20T06:56:39;99060.41;;;4.66;100.00
82160;BME280;71734;50.876;7.372;2023-12-20T06:59:06;99066.59;;;4.62;100.00
82160;BME280;71734;50.876;7.372;2023-12-20T07:01:33;99062.25;;;4.60;100.00
82160;BME280;71734;50.876;7.372;2023-12-20T07:03:59;99054.38;;;4.60;100.00
82160;BME280;71734;50.876;7.372;2023-12-20T07:06:26;99059.63;;;4.58;100.00
82160;BME280;71734;50.876;7.372;2023-12-20T07:08:57;99049.97;;;4.62;100.00
82160;BME280;71734;50.876;7.372;2023-12-20T07:11:24;99054.28;;;4.66;100.00
82160;BME280;71734;50.876;7.372;2023-12-20T07:13:52;99042.91;;;4.67;100.00
82160;BME280;71734;50.876;7.372;2023-12-20T07:16:19;99057.88;;;4.60;100.00
82160;BME280;71734;50.876;7.372;2023-12-20T07:18:46;99065.66;;;4.65;100.00
82160;BME280;71734;50.876;7.372;2023-12-20T07:21:12;99056.97;;;4.64;100.00
82160;BME280;71734;50.876;7.372;2023-12-20T07:23:39;99066.53;;;4.65;100.00
82160;BME280;71734;50.876;7.372;2023-12-20T07:26:07;99070.91;;;4.65;100.00
82160;BME280;71734;50.876;7.372;2023-12-20T07:28:34;99074.34;;;4.70;100.00
82160;BME280;71734;50.876;7.372;2023-12-20T07:31:04;99063.84;;;4.70;100.00
82160;BME280;71734;50.876;7.372;2023-12-20T07:33:31;99077.91;;;4.66;100.00
82160;BME280;71734;50.876;7.372;2023-12-20T07:35:59;99083.97;;;4.69;100.00
82160;BME280;71734;50.876;7.372;2023-12-20T07:38:26;99082.28;;;4.68;100.00
82160;BME280;71734;50.876;7.372;2023-12-20T07:40:52;99073.53;;;4.66;100.00
82160;BME280;71734;50.876;7.372;2023-12-20T07:43:18;99076.09;;;4.73;100.00
82160;BME280;71734;50.876;7.372;2023-12-20T07:45:45;99076.09;;;4.71;100.00
82160;BME280;71734;50.876;7.372;2023-12-20T07:48:16;99079.59;;;4.70;100.00
82160;BME280;71734;50.876;7.372;2023-12-20T07:50:42;99091.97;;;4.62;100.00
82160;BME280;71734;50.876;7.372;2023-12-20T07:53:09;99086.66;;;4.66;100.00
82160;BME280;71734;50.876;7.372;2023-12-20T07:55:35;99086.59;;;4.71;100.00
82160;BME280;71734;50.876;7.372;2023-12-20T07:58:02;99072.66;;;4.66;100.00
82160;BME280;71734;50.876;7.372;2023-12-20T08:00:30;99087.44;;;4.75;100.00
82160;BME280;71734;50.876;7.372;2023-12-20T08:02:56;99073.47;;;4.73;100.00
82160;BME280;71734;50.876;7.372;2023-12-20T08:05:24;99081.41;;;4.68;99.85
82160;BME280;71734;50.876;7.372;2023-12-20T08:07:51;99072.63;;;4.69;99.96
82160;BME280;71734;50.876;7.372;2023-12-20T08:10:17;99071.84;;;4.62;99.64
82160;BME280;71734;50.876;7.372;2023-12-20T08:12:47;99073.53;;;4.68;99.84
82160;BME280;71734;50.876;7.372;2023-12-20T08:15:13;99075.28;;;4.67;100.00
82160;BME280;71734;50.876;7.372;2023-12-20T08:17:43;99087.53;;;4.67;99.57
82160;BME280;71734;50.876;7.372;2023-12-20T08:20:10;99080.53;;;4.67;99.73
82160;BME280;71734;50.876;7.372;2023-12-20T08:22:38;99105.81;;;4.75;98.82
82160;BME280;71734;50.876;7.372;2023-12-20T08:25:08;99087.44;;;4.73;99.60
82160;BME280;71734;50.876;7.372;2023-12-20T08:27:39;99083.97;;;4.73;99.35
82160;BME280;71734;50.876;7.372;2023-12-20T08:30:11;99089.22;;;4.73;99.14
82160;BME280;71734;50.876;7.372;2023-12-20T08:32:38;99081.34;;;4.71;99.39
82160;BME280;71734;50.876;7.372;2023-12-20T08:35:05;99089.28;;;4.66;99.50
82160;BME280;71734;50.876;7.372;2023-12-20T08:37:32;99083.97;;;4.73;98.26
82160;BME280;71734;50.876;7.372;2023-12-20T08:40:00;99075.13;;;4.78;98.24
82160;BME280;71734;50.876;7.372;2023-12-20T08:42:27;99088.31;;;4.75;99.09
82160;BME280;71734;50.876;7.372;2023-12-20T08:44:56;99083.81;;;4.82;99.06
82160;BME280;71734;50.876;7.372;2023-12-20T08:47:23;99077.75;;;4.78;98.53
82160;BME280;71734;50.876;7.372;2023-12-20T08:49:50;99085.69;;;4.74;98.08
82160;BME280;71734;50.876;7.372;2023-12-20T08:52:17;99077.03;;;4.68;98.47
82160;BME280;71734;50.876;7.372;2023-12-20T08:54:44;99087.31;;;4.82;97.47
82160;BME280;71734;50.876;7.372;2023-12-20T08:57:12;99085.63;;;4.80;97.63
82160;BME280;71734;50.876;7.372;2023-12-20T08:59:38;99084.69;;;4.84;97.35
82160;BME280;71734;50.876;7.372;2023-12-20T09:02:07;99079.41;;;4.85;97.06
82160;BME280;71734;50.876;7.372;2023-12-20T09:04:33;99076.88;;;4.81;97.28
82160;BME280;71734;50.876;7.372;2023-12-20T09:07:07;99083.81;;;4.83;96.79
82160;BME280;71734;50.876;7.372;2023-12-20T09:09:33;99092.56;;;4.84;97.73
82160;BME280;71734;50.876;7.372;2023-12-20T09:12:00;99099.56;;;4.82;98.27
82160;BME280;71734;50.876;7.372;2023-12-20T09:14:28;99086.41;;;4.86;97.46
82160;BME280;71734;50.876;7.372;2023-12-20T09:16:54;99091.69;;;4.83;97.49
82160;BME280;71734;50.876;7.372;2023-12-20T09:19:21;99085.53;;;4.86;97.74
82160;BME280;71734;50.876;7.372;2023-12-20T09:21:49;99097.78;;;4.87;97.71
82160;BME280;71734;50.876;7.372;2023-12-20T09:24:15;99096.09;;;4.81;98.24
82160;BME280;71734;50.876;7.372;2023-12-20T09:26:42;99087.38;;;4.81;98.39
82160;BME280;71734;50.876;7.372;2023-12-20T09:29:09;99089.94;;;4.82;97.21
82160;BME280;71734;50.876;7.372;2023-12-20T09:31:41;99078.56;;;4.82;97.20
82160;BME280;71734;50.876;7.372;2023-12-20T09:34:09;99089.00;;;4.88;97.19
82160;BME280;71734;50.876;7.372;2023-12-20T09:36:37;99065.59;;;4.69;97.94
82160;BME280;71734;50.876;7.372;2023-12-20T09:39:07;99068.19;;;4.76;98.00
82160;BME280;71734;50.876;7.372;2023-12-20T09:41:43;99078.50;;;4.88;96.95
82160;BME280;71734;50.876;7.372;2023-12-20T09:44:20;99077.59;;;4.90;97.10
82160;BME280;71734;50.876;7.372;2023-12-20T09:46:50;99082.03;;;4.87;97.38
82160;BME280;71734;50.876;7.372;2023-12-20T09:49:22;99071.47;;;4.90;96.98
82160;BME280;71734;50.876;7.372;2023-12-20T09:51:50;99076.72;;;4.90;96.69
82160;BME280;71734;50.876;7.372;2023-12-20T09:54:17;99074.13;;;4.88;96.92
82160;BME280;71734;50.876;7.372;2023-12-20T09:56:44;99056.69;;;4.83;96.84
82160;BME280;71734;50.876;7.372;2023-12-20T09:59:11;99069.78;;;4.86;97.23
82160;BME280;71734;50.876;7.372;2023-12-20T10:01:38;99074.16;;;4.85;97.05
82160;BME280;71734;50.876;7.372;2023-12-20T10:04:11;99060.16;;;4.86;95.77
82160;BME280;71734;50.876;7.372;2023-12-20T10:06:39;99072.38;;;4.87;96.53
82160;BME280;71734;50.876;7.372;2023-12-20T10:09:11;99074.09;;;4.90;96.90
82160;BME280;71734;50.876;7.372;2023-12-20T10:11:39;99073.16;;;4.94;95.90
82160;BME280;71734;50.876;7.372;2023-12-20T10:14:06;99068.94;;;4.82;96.64
82160;BME280;71734;50.876;7.372;2023-12-20T10:16:36;99064.44;;;4.92;96.12
82160;BME280;71734;50.876;7.372;2023-12-20T10:19:02;99064.41;;;4.95;95.41
82160;BME280;71734;50.876;7.372;2023-12-20T10:21:36;99056.63;;;4.87;96.41
82160;BME280;71734;50.876;7.372;2023-12-20T10:24:03;99048.78;;;4.86;96.86
82160;BME280;71734;50.876;7.372;2023-12-20T10:26:31;99051.38;;;4.87;96.17
82160;BME280;71734;50.876;7.372;2023-12-20T10:29:01;99054.84;;;4.91;96.37
82160;BME280;71734;50.876;7.372;2023-12-20T10:31:30;99060.94;;;4.93;96.64
82160;BME280;71734;50.876;7.372;2023-12-20T10:34:04;99057.41;;;4.94;95.23
82160;BME280;71734;50.876;7.372;2023-12-20T10:36:33;99060.78;;;5.02;95.72
82160;BME280;71734;50.876;7.372;2023-12-20T10:39:04;99048.66;;;4.95;95.35
82160;BME280;71734;50.876;7.372;2023-12-20T10:41:35;99053.91;;;4.95;95.59
82160;BME280;71734;50.876;7.372;2023-12-20T10:44:06;99031.97;;;4.97;95.84
82160;BME280;71734;50.876;7.372;2023-12-20T10:46:33;99038.91;;;5.03;96.30
82160;BME280;71734;50.876;7.372;2023-12-20T10:49:02;99033.66;;;5.03;96.26
82160;BME280;71734;50.876;7.372;2023-12-20T10:51:29;99031.94;;;5.00;96.36
82160;BME280;71734;50.876;7.372;2023-12-20T10:53:58;99031.13;;;4.97;95.97
82160;BME280;71734;50.876;7.372;2023-12-20T10:56:32;99019.72;;;4.98;96.62
82160;BME280;71734;50.876;7.372;2023-12-20T10:59:01;99036.19;;;5.09;95.77
82160;BME280;71734;50.876;7.372;2023-12-20T11:01:32;99027.53;;;5.02;96.14
82160;BME280;71734;50.876;7.372;2023-12-20T11:03:59;99028.34;;;5.06;94.89
82160;BME280;71734;50.876;7.372;2023-12-20T11:06:33;99027.47;;;5.07;95.85
82160;BME280;71734;50.876;7.372;2023-12-20T11:09:10;99033.66;;;5.03;96.29
82160;BME280;71734;50.876;7.372;2023-12-20T11:11:51;99023.94;;;5.08;95.87
82160;BME280;71734;50.876;7.372;2023-12-20T11:14:24;99010.88;;;5.05;95.86
82160;BME280;71734;50.876;7.372;2023-12-20T11:17:05;99023.09;;;5.07;95.56
82160;BME280;71734;50.876;7.372;2023-12-20T11:19:31;99017.81;;;5.07;95.78
82160;BME280;71734;50.876;7.372;2023-12-20T11:21:58;99025.69;;;5.09;95.45
82160;BME280;71734;50.876;7.372;2023-12-20T11:24:26;99027.38;;;5.13;95.66
82160;BME280;71734;50.876;7.372;2023-12-20T11:26:55;99026.47;;;5.14;95.73
82160;BME280;71734;50.876;7.372;2023-12-20T11:29:29;99027.31;;;5.18;94.73
82160;BME280;71734;50.876;7.372;2023-12-20T11:31:56;99028.28;;;5.12;95.61
82160;BME280;71734;50.876;7.372;2023-12-20T11:34:27;99028.31;;;5.09;96.14
82160;BME280;71734;50.876;7.372;2023-12-20T11:36:57;99028.34;;;5.07;96.08
82160;BME280;71734;50.876;7.372;2023-12-20T11:39:28;99033.59;;;5.07;95.30
82160;BME280;71734;50.876;7.372;2023-12-20T11:41:56;99027.38;;;5.13;95.37
82160;BME280;71734;50.876;7.372;2023-12-20T11:44:30;99033.53;;;5.10;96.15
82160;BME280;71734;50.876;7.372;2023-12-20T11:46:57;99032.78;;;5.04;96.59
82160;BME280;71734;50.876;7.372;2023-12-20T11:49:29;99021.38;;;5.05;96.33
82160;BME280;71734;50.876;7.372;2023-12-20T11:51:56;99016.00;;;5.12;96.11
82160;BME280;71734;50.876;7.372;2023-12-20T11:54:22;99023.75;;;5.20;94.88
82160;BME280;71734;50.876;7.372;2023-12-20T11:56:50;99009.75;;;5.21;95.37
82160;BME280;71734;50.876;7.372;2023-12-20T11:59:19;99007.94;;;5.23;95.00
82160;BME280;71734;50.876;7.372;2023-12-20T12:01:49;99009.78;;;5.18;94.94
82160;BME280;71734;50.876;7.372;2023-12-20T12:04:16;99006.25;;;5.19;94.83
82160;BME280;71734;50.876;7.372;2023-12-20T12:06:43;99006.25;;;5.19;95.64
82160;BME280;71734;50.876;7.372;2023-12-20T12:09:10;99001.81;;;5.24;95.24
82160;BME280;71734;50.876;7.372;2023-12-20T12:11:36;98986.88;;;5.26;95.12
82160;BME280;71734;50.876;7.372;2023-12-20T12:14:04;98981.69;;;5.23;93.87
82160;BME280;71734;50.876;7.372;2023-12-20T12:16:31;98984.38;;;5.19;95.45
82160;BME280;71734;50.876;7.372;2023-12-20T12:18:58;98980.78;;;5.26;95.21
82160;BME280;71734;50.876;7.372;2023-12-20T12:21:26;98984.22;;;5.29;95.89
82160;BME280;71734;50.876;7.372;2023-12-20T12:23:52;98970.28;;;5.24;94.70
82160;BME280;71734;50.876;7.372;2023-12-20T12:26:19;98976.34;;;5.29;94.59
82160;BME280;71734;50.876;7.372;2023-12-20T12:28:45;98962.50;;;5.18;94.92
82160;BME280;71734;50.876;7.372;2023-12-20T12:31:17;98964.22;;;5.19;95.19
82160;BME280;71734;50.876;7.372;2023-12-20T12:33:43;98968.47;;;5.28;95.18
82160;BME280;71734;50.876;7.372;2023-12-20T12:36:10;98960.72;;;5.22;95.04
82160;BME280;71734;50.876;7.372;2023-12-20T12:38:41;98963.19;;;5.29;94.81
82160;BME280;71734;50.876;7.372;2023-12-20T12:41:07;98950.16;;;5.23;95.16
82160;BME280;71734;50.876;7.372;2023-12-20T12:43:35;98954.63;;;5.18;95.79
82160;BME280;71734;50.876;7.372;2023-12-20T12:46:01;98954.66;;;5.17;97.30
82160;BME280;71734;50.876;7.372;2023-12-20T12:48:29;98954.66;;;5.17;97.04
82160;BME280;71734;50.876;7.372;2023-12-20T12:50:56;98951.03;;;5.22;97.53
82160;BME280;71734;50.876;7.372;2023-12-20T12:53:27;98951.09;;;5.21;97.45
82160;BME280;71734;50.876;7.372;2023-12-20T12:55:53;98941.44;;;5.21;97.42
82160;BME280;71734;50.876;7.372;2023-12-20T12:58:21;98946.69;;;5.21;98.04
82160;BME280;71734;50.876;7.372;2023-12-20T13:00:48;98949.28;;;5.24;97.49
82160;BME280;71734;50.876;7.372;2023-12-20T13:03:15;98948.47;;;5.19;97.93
82160;BME280;71734;50.876;7.372;2023-12-20T13:05:43;98946.84;;;5.12;98.42
82160;BME280;71734;50.876;7.372;2023-12-20T13:08:09;98953.78;;;5.16;99.14